Terminal Aerodrome Forecast
Issued by NWS Miami, FL

Home | Current Version | Previous Version | Text Only | Print | Product List | Glossary On
Versions: 1 2 3 4 5 6 7 8 9 10 11 12 13 14 15 16 17 18 19 20 21 22 23 24 25 26 27 28 29
000
FTUS42 KMFL 162332
TAFAPF
TAF
KAPF 162332Z 1700/1724 06010KT P6SM BKN070
     FM170500 06008KT P6SM BKN020
     FM171300 07010KT P6SM VCSH BKN025
     FM171800 05010KT P6SM VCTS BKN035CB=

USA.gov is the U.S. government's official web portal to all federal, state and local government web resources and services.